NCAR-RAP Real-Time Weather Data

Output produced by METARs form (12 August 2020  18:02 UTC)
found at http://weather.rap.ucar.edu/surface/
 
KORL 121753Z 06003KT 10SM BKN060 33/21 A3003 RMK AO2 LTG DSNT SE SLP170 T03280211 10333 20267 58012
KORL 121653Z VRB03KT 10SM FEW045 BKN055 32/21 A3005 RMK AO2 LTG DSNT SE SLP176 T03170206
KORL 121553Z 00000KT 10SM CLR 32/21 A3006
KORL 121453Z 00000KT 10SM CLR 31/21 A3006 RMK AO2 SLP181 T03110211 53005
KORL 121353Z 00000KT 10SM CLR 30/21 A3006
KORL 121253Z 00000KT 10SM CLR 28/23 A3005
KORL 121153Z 00000KT 10SM CLR 27/24 A3004
KORL 121053Z 00000KT 10SM CLR 26/23 A3003
KORL 111753Z 27006KT 10SM FEW048 34/21 A3002
KORL 111653Z 00000KT 10SM SCT041 SCT050 SCT070 33/22 A3005
KORL 111453Z VRB03KT 10SM CLR 31/23 A3006
KORL 111153Z 00000KT 10SM CLR 27/24 A3004
KORL 102053Z 12009KT 10SM SCT043 34/23 A3003